Terminal Aerodrome Forecast
Issued by NWS

Home | Current Version | Previous Version | Text Only | Print | Product List | Glossary On
Versions: 1 2 3 4 5 6 7 8 9 10 11 12 13
000
FTUS45 KGGW 252300
TAFOLF
TAF
KOLF 252320Z 2600/2624 09009KT P6SM FEW150
     FM260900 VRB03KT P6SM SCT140
     FM261500 28012KT P6SM BKN130
     FM261800 28020G29KT P6SM SCT100=

USA.gov is the U.S. government's official web portal to all federal, state and local government web resources and services.